Time;durP1;ratioP1;P1;durP2;ratioP2;P2;SDS_P1;SDS_P2;PMS_P1;PMS_P2;Temp;Humidity;BMP_temperature;BMP_pressure;BME280_temperature;BME280_humidity;BME280_pressure;Samples;Min_cycle;Max_cycle;Signal;HPM_P1;HPM_P2
2021/03/24 00:01:53;;;;;;;54.80;26.20;;;;;;;;;;4981984;28;20033;-70
2021/03/24 00:04:19;;;;;;;56.90;27.50;;;;;;;;;;4987167;28;20042;-70
2021/03/24 00:06:46;;;;;;;55.10;26.30;;;;;;;;;;4984901;28;20026;-70
2021/03/24 00:09:13;;;;;;;56.85;26.67;;;;;;;;;;4984162;28;20034;-70
2021/03/24 00:11:39;;;;;;;50.72;25.55;;;;;;;;;;4986287;28;20033;-70
2021/03/24 00:14:06;;;;;;;56.75;26.75;;;;;;;;;;4987406;28;20030;-70
2021/03/24 00:16:32;;;;;;;55.95;25.77;;;;;;;;;;4985560;28;20511;-70
2021/03/24 00:18:58;;;;;;;52.53;26.38;;;;;;;;;;4990763;28;20571;-70
2021/03/24 00:21:24;;;;;;;59.58;26.17;;;;;;;;;;4984561;28;20138;-70
2021/03/24 00:23:50;;;;;;;53.63;25.55;;;;;;;;;;4986468;28;20035;-70
2021/03/24 00:26:16;;;;;;;60.15;28.13;;;;;;;;;;4986033;28;20042;-70
2021/03/24 00:28:43;;;;;;;57.88;28.58;;;;;;;;;;4982796;28;20038;-70
2021/03/24 00:31:09;;;;;;;55.03;26.48;;;;;;;;;;4990367;28;20110;-70
2021/03/24 00:33:35;;;;;;;57.15;27.33;;;;;;;;;;4985169;28;20023;-70
2021/03/24 00:36:01;;;;;;;55.90;26.30;;;;;;;;;;4991794;28;20022;-70
2021/03/24 00:38:27;;;;;;;73.20;31.73;;;;;;;;;;4984452;28;20035;-70
2021/03/24 00:40:55;;;;;;;65.40;29.15;;;;;;;;;;4983935;28;20034;-70
2021/03/24 00:43:21;;;;;;;63.20;28.70;;;;;;;;;;4989571;28;20113;-69
2021/03/24 00:45:47;;;;;;;64.25;29.05;;;;;;;;;;4981014;28;20034;-70
2021/03/24 00:48:19;;;;;;;66.30;28.65;;;;;;;;;;4989059;28;20034;-70
2021/03/24 00:50:45;;;;;;;64.32;29.65;;;;;;;;;;4991010;28;20567;-70
2021/03/24 00:53:11;;;;;;;66.10;27.75;;;;;;;;;;4985416;28;20031;-70
2021/03/24 00:55:37;;;;;;;68.97;30.25;;;;;;;;;;4983894;28;20022;-70
2021/03/24 00:58:03;;;;;;;62.17;30.08;;;;;;;;;;4978516;28;20034;-70
2021/03/24 01:00:31;;;;;;;70.18;30.55;;;;;;;;;;4988269;28;20031;-70
2021/03/24 01:02:57;;;;;;;69.57;32.78;;;;;;;;;;4986407;28;20014;-70
2021/03/24 01:05:24;;;;;;;71.68;31.95;;;;;;;;;;4982977;28;20038;-70
2021/03/24 01:07:50;;;;;;;65.55;29.45;;;;;;;;;;4985235;28;20374;-70
2021/03/24 01:10:27;;;;;;;76.93;31.13;;;;;;;;;;4981968;28;20019;-70
2021/03/24 01:12:54;;;;;;;68.97;30.80;;;;;;;;;;4985006;28;20104;-70
2021/03/24 01:15:20;;;;;;;62.17;30.00;;;;;;;;;;4989717;28;20041;-70
2021/03/24 01:17:46;;;;;;;62.38;31.42;;;;;;;;;;4984340;28;20497;-70
2021/03/24 01:20:13;;;;;;;64.78;28.95;;;;;;;;;;4986408;28;20109;-69
2021/03/24 01:22:40;;;;;;;59.35;29.75;;;;;;;;;;4989490;28;20513;-70
2021/03/24 01:25:06;;;;;;;62.90;30.80;;;;;;;;;;4981274;28;20515;-70
2021/03/24 01:27:32;;;;;;;66.40;30.00;;;;;;;;;;4977701;28;20121;-70
2021/03/24 01:29:58;;;;;;;77.15;33.88;;;;;;;;;;4988052;28;20109;-70
2021/03/24 01:32:24;;;;;;;71.20;31.83;;;;;;;;;;4980368;28;20085;-70
2021/03/24 01:34:50;;;;;;;70.47;31.20;;;;;;;;;;4980466;28;20029;-70
2021/03/24 01:37:16;;;;;;;70.10;30.92;;;;;;;;;;4985803;28;20034;-70
2021/03/24 01:39:42;;;;;;;70.25;31.65;;;;;;;;;;4990137;28;20512;-70
2021/03/24 01:42:09;;;;;;;74.30;31.00;;;;;;;;;;4991042;28;20026;-69
2021/03/24 01:44:55;;;;;;;66.05;30.17;;;;;;;;;;4989304;28;20045;-70
2021/03/24 01:47:21;;;;;;;58.13;28.38;;;;;;;;;;4974613;28;20480;-69
2021/03/24 01:49:47;;;;;;;67.15;30.65;;;;;;;;;;4991132;28;20023;-70
2021/03/24 01:52:13;;;;;;;69.57;29.58;;;;;;;;;;4980087;28;21679;-69
2021/03/24 01:54:40;;;;;;;66.60;29.40;;;;;;;;;;4989947;28;20053;-70
2021/03/24 01:57:19;;;;;;;66.50;28.75;;;;;;;;;;4987252;28;20041;-70
2021/03/24 01:59:45;;;;;;;75.57;30.75;;;;;;;;;;4982690;28;20534;-70
2021/03/24 02:02:13;;;;;;;65.78;32.15;;;;;;;;;;4982137;28;20026;-70
2021/03/24 02:04:39;;;;;;;66.75;29.45;;;;;;;;;;4983909;28;20035;-69
2021/03/24 02:07:09;;;;;;;72.82;30.73;;;;;;;;;;4982301;28;20556;-70
2021/03/24 02:09:37;;;;;;;63.70;31.15;;;;;;;;;;4985450;28;20038;-70
2021/03/24 02:12:25;;;;;;;76.53;33.78;;;;;;;;;;4986718;28;20023;-70
2021/03/24 02:14:59;;;;;;;75.22;30.80;;;;;;;;;;4980171;28;20034;-70
2021/03/24 02:17:27;;;;;;;78.97;33.67;;;;;;;;;;4989090;28;20064;-70
2021/03/24 02:20:05;;;;;;;76.85;32.35;;;;;;;;;;4989772;28;20113;-69
2021/03/24 02:22:36;;;;;;;75.53;33.60;;;;;;;;;;4984946;28;20601;-70
2021/03/24 02:25:11;;;;;;;64.72;30.48;;;;;;;;;;4985491;28;20034;-69
2021/03/24 02:27:40;;;;;;;70.82;31.73;;;;;;;;;;4982220;28;20048;-69
2021/03/24 02:30:17;;;;;;;69.78;31.35;;;;;;;;;;4985299;28;20023;-69
2021/03/24 02:32:49;;;;;;;75.43;30.85;;;;;;;;;;4977338;28;20034;-70
2021/03/24 02:35:18;;;;;;;69.38;31.33;;;;;;;;;;4981935;28;20027;-69
2021/03/24 02:37:44;;;;;;;69.53;30.73;;;;;;;;;;4985336;28;20155;-70
2021/03/24 02:40:13;;;;;;;71.05;30.00;;;;;;;;;;4995171;28;20038;-70
2021/03/24 02:42:41;;;;;;;70.60;30.67;;;;;;;;;;4990837;28;20562;-70
2021/03/24 02:45:08;;;;;;;79.35;34.88;;;;;;;;;;4983614;28;20099;-69
2021/03/24 02:47:34;;;;;;;78.57;31.75;;;;;;;;;;4992613;28;20035;-69
2021/03/24 02:50:00;;;;;;;68.10;30.63;;;;;;;;;;4989014;28;20022;-70
2021/03/24 02:52:26;;;;;;;74.40;32.67;;;;;;;;;;4994762;28;20484;-70
2021/03/24 02:54:53;;;;;;;73.43;31.23;;;;;;;;;;4992050;28;20420;-70
2021/03/24 02:57:19;;;;;;;78.70;33.67;;;;;;;;;;4990059;28;20081;-70
2021/03/24 02:59:45;;;;;;;77.45;34.80;;;;;;;;;;4983287;28;20042;-70
2021/03/24 03:02:16;;;;;;;75.20;32.78;;;;;;;;;;4988180;28;20080;-70
2021/03/24 03:04:51;;;;;;;71.85;36.40;;;;;;;;;;4983979;28;20070;-69
2021/03/24 03:07:34;;;;;;;75.30;33.17;;;;;;;;;;4980326;28;20062;-70
2021/03/24 03:10:06;;;;;;;84.13;34.40;;;;;;;;;;4985659;28;20022;-70
2021/03/24 03:12:35;;;;;;;76.72;33.28;;;;;;;;;;4986767;28;20030;-69
2021/03/24 03:15:06;;;;;;;80.22;35.58;;;;;;;;;;4990874;28;20022;-70
2021/03/24 03:17:44;;;;;;;81.88;36.00;;;;;;;;;;4981103;28;20041;-70
2021/03/24 03:20:19;;;;;;;73.80;33.45;;;;;;;;;;4989137;28;20029;-70
2021/03/24 03:22:52;;;;;;;76.20;34.35;;;;;;;;;;4979027;28;20030;-70
2021/03/24 03:25:20;;;;;;;74.80;33.17;;;;;;;;;;4989470;28;20027;-70
2021/03/24 03:27:48;;;;;;;81.95;35.13;;;;;;;;;;4981676;28;20575;-70
2021/03/24 03:30:16;;;;;;;77.75;33.47;;;;;;;;;;4988056;28;20031;-70
2021/03/24 03:32:43;;;;;;;76.30;32.47;;;;;;;;;;4985131;28;20030;-70
2021/03/24 03:35:13;;;;;;;73.32;33.42;;;;;;;;;;4986280;28;20065;-70
2021/03/24 03:37:39;;;;;;;80.95;36.15;;;;;;;;;;4985709;28;20038;-70
2021/03/24 03:40:08;;;;;;;83.30;35.40;;;;;;;;;;4990582;28;20034;-70
2021/03/24 03:42:36;;;;;;;76.32;35.67;;;;;;;;;;4988934;28;20077;-69
2021/03/24 03:45:03;;;;;;;86.35;36.70;;;;;;;;;;4993099;28;20076;-70
2021/03/24 03:47:29;;;;;;;86.65;35.42;;;;;;;;;;4981834;28;20065;-69
2021/03/24 03:49:55;;;;;;;78.10;35.58;;;;;;;;;;4989657;28;20062;-69
2021/03/24 03:52:38;;;;;;;78.97;35.33;;;;;;;;;;4984954;28;20042;-70
2021/03/24 03:55:10;;;;;;;85.78;36.92;;;;;;;;;;4993551;28;20054;-69
2021/03/24 03:57:36;;;;;;;84.90;36.00;;;;;;;;;;4983478;28;20725;-70
2021/03/24 04:00:08;;;;;;;96.93;35.45;;;;;;;;;;4986401;28;20228;-70
2021/03/24 04:02:38;;;;;;;83.45;34.33;;;;;;;;;;4979996;28;20035;-69
2021/03/24 04:05:06;;;;;;;87.97;36.67;;;;;;;;;;4981681;28;20026;-70
2021/03/24 04:07:39;;;;;;;82.45;35.08;;;;;;;;;;4976930;28;20030;-69
2021/03/24 04:10:06;;;;;;;84.93;36.28;;;;;;;;;;4993654;28;20022;-69
2021/03/24 04:12:34;;;;;;;78.82;34.63;;;;;;;;;;4980807;28;20172;-69
2021/03/24 04:15:00;;;;;;;91.85;37.60;;;;;;;;;;4990035;28;20246;-70
2021/03/24 04:17:30;;;;;;;83.65;35.97;;;;;;;;;;4981247;28;20030;-69
2021/03/24 04:19:58;;;;;;;77.03;33.47;;;;;;;;;;4978617;28;20646;-69
2021/03/24 04:22:26;;;;;;;86.18;36.83;;;;;;;;;;4989911;28;20436;-70
2021/03/24 04:24:54;;;;;;;82.07;36.47;;;;;;;;;;4985304;28;20038;-69
2021/03/24 04:27:22;;;;;;;80.03;37.08;;;;;;;;;;4982418;28;20026;-70
2021/03/24 04:29:54;;;;;;;91.22;37.70;;;;;;;;;;4981721;28;20113;-69
2021/03/24 04:32:20;;;;;;;;;;;;;;;;;;4980855;28;20658;-69
2021/03/24 04:34:46;;;;;;;90.57;38.05;;;;;;;;;;4984048;28;19953;-69
2021/03/24 04:37:31;;;;;;;83.68;37.05;;;;;;;;;;4985356;28;20021;-69
2021/03/24 04:40:06;;;;;;;80.53;37.10;;;;;;;;;;4986243;28;20038;-69
2021/03/24 04:42:34;;;;;;;82.00;35.85;;;;;;;;;;4981880;28;20037;-69
2021/03/24 04:45:03;;;;;;;92.95;39.97;;;;;;;;;;4981789;28;20237;-69
2021/03/24 04:47:34;;;;;;;86.40;37.95;;;;;;;;;;4988393;28;20038;-69
2021/03/24 04:50:00;;;;;;;91.47;39.83;;;;;;;;;;4987380;28;20034;-69
2021/03/24 04:52:27;;;;;;;87.22;39.15;;;;;;;;;;4980474;28;20030;-69
2021/03/24 04:54:54;;;;;;;82.70;40.50;;;;;;;;;;4987605;28;20208;-69
2021/03/24 04:57:23;;;;;;;82.72;40.53;;;;;;;;;;4981424;28;20030;-69
2021/03/24 04:59:52;;;;;;;87.28;37.08;;;;;;;;;;4989596;28;20423;-70
2021/03/24 05:02:23;;;;;;;83.80;38.35;;;;;;;;;;4986114;28;20070;-69
2021/03/24 05:04:55;;;;;;;96.57;40.50;;;;;;;;;;4987865;28;20154;-69
2021/03/24 05:07:40;;;;;;;88.38;41.55;;;;;;;;;;4984044;28;20035;-69
2021/03/24 05:10:07;;;;;;;95.72;38.95;;;;;;;;;;4975090;28;20035;-69
2021/03/24 05:12:37;;;;;;;85.40;37.95;;;;;;;;;;4985727;28;20028;-70
2021/03/24 05:15:15;;;;;;;78.22;37.10;;;;;;;;;;4989269;28;20026;-70
2021/03/24 05:17:42;;;;;;;86.90;39.03;;;;;;;;;;4984349;28;20039;-69
2021/03/24 05:20:20;;;;;;;88.35;39.08;;;;;;;;;;4979957;28;20049;-69
2021/03/24 05:22:47;;;;;;;87.05;36.63;;;;;;;;;;4990890;28;20030;-69
2021/03/24 05:25:19;;;;;;;80.50;36.63;;;;;;;;;;4991323;28;20033;-70
2021/03/24 05:27:50;;;;;;;85.38;38.92;;;;;;;;;;4982042;28;20034;-69
2021/03/24 05:30:27;;;;;;;84.55;36.42;;;;;;;;;;4980469;28;20563;-70
2021/03/24 05:33:01;;;;;;;83.88;35.78;;;;;;;;;;4984175;28;20057;-69
2021/03/24 05:35:47;;;;;;;89.75;36.00;;;;;;;;;;4986220;28;20076;-69
2021/03/24 05:38:32;;;;;;;98.65;40.80;;;;;;;;;;4985667;28;20035;-70
2021/03/24 05:41:02;;;;;;;82.82;37.08;;;;;;;;;;4977036;28;20030;-70
2021/03/24 05:43:47;;;;;;;90.57;39.88;;;;;;;;;;4975017;28;20034;-70
2021/03/24 05:46:26;;;;;;;85.88;39.88;;;;;;;;;;4983634;28;20046;-69
2021/03/24 05:49:01;;;;;;;88.80;41.40;;;;;;;;;;4987154;28;20484;-69
2021/03/24 05:51:31;;;;;;;85.25;38.30;;;;;;;;;;4987692;28;20031;-70
2021/03/24 05:54:20;;;;;;;96.57;39.67;;;;;;;;;;4988898;28;20034;-70
2021/03/24 05:57:05;;;;;;;88.82;39.88;;;;;;;;;;4983671;28;20663;-70
2021/03/24 05:59:39;;;;;;;83.80;40.70;;;;;;;;;;4990171;28;20022;-70
2021/03/24 06:02:09;;;;;;;89.30;39.45;;;;;;;;;;4983848;28;20046;-70
2021/03/24 06:04:50;;;;;;;90.43;38.70;;;;;;;;;;4986419;28;20038;-69
2021/03/24 06:07:26;;;;;;;69.05;30.00;;;;;;;;;;4986520;28;20101;-69
2021/03/24 06:09:58;;;;;;;88.18;37.90;;;;;;;;;;4986154;28;20129;-70
2021/03/24 06:12:43;;;;;;;92.50;41.17;;;;;;;;;;4988556;28;20030;-70
2021/03/24 06:15:26;;;;;;;92.10;41.67;;;;;;;;;;4980374;28;20077;-69
2021/03/24 06:17:52;;;;;;;92.13;40.90;;;;;;;;;;4978603;28;20071;-69
2021/03/24 06:20:36;;;;;;;104.30;45.90;;;;;;;;;;4991776;28;20022;-70
2021/03/24 06:23:21;;;;;;;96.05;40.92;;;;;;;;;;4982584;28;20041;-70
2021/03/24 06:25:52;;;;;;;99.18;42.90;;;;;;;;;;4984088;28;20254;-70
2021/03/24 06:28:24;;;;;;;97.82;42.38;;;;;;;;;;4979885;28;20030;-70
2021/03/24 06:31:00;;;;;;;103.55;43.95;;;;;;;;;;4977635;28;20030;-70
2021/03/24 06:33:26;;;;;;;97.68;44.38;;;;;;;;;;4975555;28;20034;-70
2021/03/24 06:35:55;;;;;;;99.72;45.33;;;;;;;;;;4978643;28;20067;-69
2021/03/24 06:38:27;;;;;;;96.32;44.80;;;;;;;;;;4978693;28;20444;-69
2021/03/24 06:40:56;;;;;;;107.63;48.67;;;;;;;;;;4982525;28;20027;-70
2021/03/24 06:43:41;;;;;;;126.72;52.85;;;;;;;;;;4976745;28;20039;-70
2021/03/24 06:46:31;;;;;;;117.10;48.35;;;;;;;;;;4979525;28;20575;-69
2021/03/24 06:49:15;;;;;;;108.47;46.92;;;;;;;;;;4961551;28;20572;-69
2021/03/24 06:52:04;;;;;;;135.55;59.28;;;;;;;;;;4982433;28;20034;-70
2021/03/24 06:54:42;;;;;;;135.45;61.13;;;;;;;;;;4986117;28;20108;-69
2021/03/24 06:57:14;;;;;;;136.52;56.55;;;;;;;;;;4981565;28;20049;-69
2021/03/24 06:59:59;;;;;;;136.25;62.20;;;;;;;;;;4982538;28;20034;-69
2021/03/24 07:02:31;;;;;;;156.82;63.45;;;;;;;;;;4976961;28;20031;-69
2021/03/24 07:05:16;;;;;;;163.25;66.93;;;;;;;;;;4979630;28;20050;-69
2021/03/24 07:07:45;;;;;;;156.50;68.07;;;;;;;;;;4981271;28;20069;-68
2021/03/24 07:10:22;;;;;;;134.20;65.22;;;;;;;;;;4985609;28;20106;-67
2021/03/24 07:12:48;;;;;;;151.80;64.10;;;;;;;;;;4980674;28;20038;-68
2021/03/24 07:15:15;;;;;;;150.55;64.28;;;;;;;;;;4977150;28;20023;-67
2021/03/24 07:18:00;;;;;;;160.88;68.30;;;;;;;;;;4979757;28;20080;-67
2021/03/24 07:20:38;;;;;;;148.52;64.10;;;;;;;;;;4981050;28;20104;-69
2021/03/24 07:23:04;;;;;;;147.40;62.22;;;;;;;;;;4988776;28;20034;-68
2021/03/24 07:25:44;;;;;;;153.27;66.07;;;;;;;;;;4985905;28;20031;-69
2021/03/24 07:28:29;;;;;;;152.10;66.65;;;;;;;;;;4990319;28;20065;-69
2021/03/24 07:31:09;;;;;;;142.57;65.38;;;;;;;;;;4989926;28;20488;-69
2021/03/24 07:33:54;;;;;;;151.98;64.60;;;;;;;;;;5004853;28;20054;-68
2021/03/24 07:36:20;;;;;;;134.00;54.00;;;;;;;;;;4983795;28;20125;-68
2021/03/24 07:39:04;;;;;;;141.85;62.20;;;;;;;;;;4987432;28;20027;-68
2021/03/24 07:41:46;;;;;;;148.13;66.85;;;;;;;;;;4985868;28;20472;-69
2021/03/24 07:44:12;;;;;;;150.57;60.40;;;;;;;;;;4984115;28;20046;-69
2021/03/24 07:46:51;;;;;;;143.32;64.85;;;;;;;;;;4983797;28;20039;-69
2021/03/24 07:49:35;;;;;;;131.95;59.55;;;;;;;;;;4981384;28;20030;-69
2021/03/24 07:52:10;;;;;;;130.55;58.58;;;;;;;;;;4987604;28;20030;-69
2021/03/24 07:54:39;;;;;;;126.65;56.40;;;;;;;;;;4984807;28;20047;-69
2021/03/24 07:57:11;;;;;;;128.98;59.55;;;;;;;;;;4979644;28;20022;-69
2021/03/24 07:59:37;;;;;;;128.27;60.83;;;;;;;;;;4982759;28;20049;-68
2021/03/24 08:02:20;;;;;;;133.10;60.00;;;;;;;;;;4987112;28;20022;-68
2021/03/24 08:04:46;;;;;;;122.07;52.42;;;;;;;;;;4981297;28;20035;-70
2021/03/24 08:07:15;;;;;;;119.05;55.67;;;;;;;;;;4984757;28;20076;-69
2021/03/24 08:09:57;;;;;;;122.30;53.30;;;;;;;;;;4990199;28;20522;-69
2021/03/24 08:12:33;;;;;;;119.75;53.25;;;;;;;;;;4991748;28;20030;-69
2021/03/24 08:15:08;;;;;;;120.78;53.22;;;;;;;;;;4984799;28;20018;-70
2021/03/24 08:17:52;;;;;;;115.60;53.85;;;;;;;;;;4984376;28;20031;-70
2021/03/24 08:20:21;;;;;;;117.75;51.45;;;;;;;;;;4985902;28;20555;-69
2021/03/24 08:22:54;;;;;;;108.00;51.90;;;;;;;;;;4991592;28;20026;-69
2021/03/24 08:25:39;;;;;;;109.57;52.83;;;;;;;;;;4984768;28;20089;-69
2021/03/24 08:28:11;;;;;;;115.97;50.70;;;;;;;;;;4986132;28;20036;-69
2021/03/24 08:30:37;;;;;;;;;;;;;;;;;;4992383;28;20029;-69
2021/03/24 08:33:09;;;;;;;114.88;48.50;;;;;;;;;;4992135;28;19929;-69
2021/03/24 08:35:35;;;;;;;;;;;;;;;;;;4983091;28;20118;-70
2021/03/24 08:38:19;;;;;;;108.05;47.67;;;;;;;;;;4982693;28;20008;-69
2021/03/24 08:40:48;;;;;;;103.32;48.95;;;;;;;;;;4992403;28;20385;-70
2021/03/24 08:43:17;;;;;;;104.40;46.72;;;;;;;;;;4990818;28;20468;-69
2021/03/24 08:45:50;;;;;;;96.53;45.25;;;;;;;;;;4979810;28;20053;-69
2021/03/24 08:48:21;;;;;;;101.97;47.30;;;;;;;;;;4989848;28;20400;-69
2021/03/24 08:50:55;;;;;;;100.90;50.35;;;;;;;;;;4986956;28;20038;-69
2021/03/24 08:53:30;;;;;;;85.25;39.08;;;;;;;;;;4988884;28;20034;-70
2021/03/24 08:56:10;;;;;;;88.88;43.20;;;;;;;;;;4982538;28;20035;-69
2021/03/24 08:58:39;;;;;;;101.85;44.45;;;;;;;;;;4977232;28;20624;-70
2021/03/24 09:01:18;;;;;;;99.10;45.38;;;;;;;;;;4986437;28;20400;-69
2021/03/24 09:03:44;;;;;;;90.55;43.50;;;;;;;;;;4989510;28;20026;-69
2021/03/24 09:06:14;;;;;;;81.70;38.50;;;;;;;;;;4991363;28;20022;-69
2021/03/24 09:08:44;;;;;;;86.30;43.42;;;;;;;;;;4985151;28;20443;-69
2021/03/24 09:11:16;;;;;;;98.82;45.75;;;;;;;;;;4990993;28;20034;-68
2021/03/24 09:13:54;;;;;;;87.47;42.20;;;;;;;;;;4986837;28;20498;-69
2021/03/24 09:16:38;;;;;;;95.18;43.60;;;;;;;;;;4990770;28;20014;-68
2021/03/24 09:19:10;;;;;;;86.93;42.13;;;;;;;;;;4989460;28;20452;-70
2021/03/24 09:21:50;;;;;;;85.55;39.10;;;;;;;;;;4973875;28;20030;-69
2021/03/24 09:24:19;;;;;;;73.05;36.30;;;;;;;;;;4980989;28;20548;-69
2021/03/24 09:27:08;;;;;;;75.25;36.00;;;;;;;;;;4987076;28;20034;-69
2021/03/24 09:29:41;;;;;;;73.03;34.22;;;;;;;;;;4981519;28;20519;-69
2021/03/24 09:32:08;;;;;;;68.25;31.35;;;;;;;;;;4987877;28;20033;-70
2021/03/24 09:34:34;;;;;;;65.30;32.28;;;;;;;;;;4986295;28;20102;-69
2021/03/24 09:37:07;;;;;;;74.20;34.08;;;;;;;;;;4980808;28;20042;-69
2021/03/24 09:39:53;;;;;;;71.53;35.17;;;;;;;;;;4980710;28;20026;-68
2021/03/24 09:42:36;;;;;;;73.72;32.17;;;;;;;;;;4979500;28;20026;-69
2021/03/24 09:45:16;;;;;;;68.18;27.67;;;;;;;;;;4986311;28;20074;-70
2021/03/24 09:47:49;;;;;;;70.95;30.80;;;;;;;;;;4977997;28;20504;-70
2021/03/24 09:50:21;;;;;;;75.82;33.08;;;;;;;;;;4982115;28;20033;-70
2021/03/24 09:52:50;;;;;;;62.75;29.80;;;;;;;;;;4982003;28;20041;-69
2021/03/24 09:55:20;;;;;;;64.45;31.83;;;;;;;;;;4986163;28;20164;-69
2021/03/24 09:57:49;;;;;;;57.10;24.67;;;;;;;;;;4981017;28;20029;-71
2021/03/24 10:00:16;;;;;;;68.68;32.42;;;;;;;;;;4986150;28;20404;-70
2021/03/24 10:02:50;;;;;;;67.38;32.03;;;;;;;;;;4982855;28;20077;-69
2021/03/24 10:05:23;;;;;;;64.68;30.73;;;;;;;;;;4987009;28;20113;-70
2021/03/24 10:08:00;;;;;;;61.05;27.40;;;;;;;;;;4982976;28;20221;-69
2021/03/24 10:10:32;;;;;;;69.53;33.42;;;;;;;;;;4982810;28;20449;-69
2021/03/24 10:13:14;;;;;;;74.88;33.38;;;;;;;;;;4985631;28;20026;-69
2021/03/24 10:15:52;;;;;;;61.85;28.23;;;;;;;;;;4985860;28;20200;-69
2021/03/24 10:18:21;;;;;;;65.00;33.08;;;;;;;;;;4978074;28;20252;-70
2021/03/24 10:20:59;;;;;;;63.40;32.13;;;;;;;;;;4981810;28;20044;-69
2021/03/24 10:23:47;;;;;;;65.07;26.00;;;;;;;;;;4981643;28;20035;-71
2021/03/24 10:26:15;;;;;;;64.72;34.55;;;;;;;;;;4989315;28;20207;-69
2021/03/24 10:28:44;;;;;;;62.67;28.98;;;;;;;;;;4984413;28;20039;-69
2021/03/24 10:31:16;;;;;;;58.45;29.88;;;;;;;;;;4991440;28;20026;-69
2021/03/24 10:34:01;;;;;;;51.58;21.10;;;;;;;;;;4985682;28;20658;-70
2021/03/24 10:36:35;;;;;;;85.47;38.40;;;;;;;;;;4988103;28;20521;-70
2021/03/24 10:39:07;;;;;;;77.05;36.15;;;;;;;;;;4985015;28;20050;-70
2021/03/24 10:41:42;;;;;;;68.18;30.63;;;;;;;;;;4986570;28;20029;-70
2021/03/24 10:44:13;;;;;;;72.85;34.53;;;;;;;;;;4980770;28;20034;-71
2021/03/24 10:46:42;;;;;;;70.05;33.75;;;;;;;;;;4973128;28;20612;-71
2021/03/24 10:49:17;;;;;;;69.90;34.13;;;;;;;;;;4980821;28;20566;-70
2021/03/24 10:52:02;;;;;;;70.28;34.50;;;;;;;;;;4985297;28;20866;-72
2021/03/24 10:54:38;;;;;;;65.63;32.20;;;;;;;;;;4987967;28;20046;-70
2021/03/24 10:57:14;;;;;;;58.95;24.58;;;;;;;;;;4976189;28;20535;-71
2021/03/24 10:59:44;;;;;;;43.55;14.48;;;;;;;;;;4988757;28;20386;-71
2021/03/24 11:02:22;;;;;;;62.50;29.83;;;;;;;;;;4984270;28;20026;-71
2021/03/24 11:04:54;;;;;;;57.53;30.27;;;;;;;;;;4993638;28;20018;-72
2021/03/24 11:07:25;;;;;;;67.63;30.65;;;;;;;;;;4983206;28;20027;-71
2021/03/24 11:09:55;;;;;;;66.97;32.13;;;;;;;;;;4985236;28;20026;-70
2021/03/24 11:12:35;;;;;;;66.18;32.97;;;;;;;;;;4989129;28;20081;-70
2021/03/24 11:15:05;;;;;;;68.50;32.65;;;;;;;;;;4985477;28;20022;-69
2021/03/24 11:17:38;;;;;;;63.42;30.58;;;;;;;;;;4983103;28;20037;-70
2021/03/24 11:20:07;;;;;;;64.00;30.30;;;;;;;;;;4981355;28;20031;-70
2021/03/24 11:22:52;;;;;;;69.38;28.98;;;;;;;;;;4983560;28;20028;-70
2021/03/24 11:25:30;;;;;;;58.75;27.67;;;;;;;;;;4984645;28;20487;-71
2021/03/24 11:28:03;;;;;;;61.10;29.38;;;;;;;;;;4979056;28;20539;-69
2021/03/24 11:30:35;;;;;;;59.50;26.60;;;;;;;;;;4984014;28;20019;-71
2021/03/24 11:33:01;;;;;;;;;;;;;;;;;;4983814;28;20531;-70
2021/03/24 11:35:33;;;;;;;49.53;24.17;;;;;;;;;;4986849;28;19909;-70
2021/03/24 11:38:08;;;;;;;56.88;23.58;;;;;;;;;;4978898;28;20038;-72
2021/03/24 11:40:44;;;;;;;60.25;30.02;;;;;;;;;;4984302;28;20097;-70
2021/03/24 11:43:16;;;;;;;63.72;32.22;;;;;;;;;;4979554;28;20026;-70
2021/03/24 11:45:44;;;;;;;57.90;27.10;;;;;;;;;;4983706;28;20101;-72
2021/03/24 11:48:14;;;;;;;63.58;30.40;;;;;;;;;;4980173;28;20062;-71
2021/03/24 11:50:46;;;;;;;64.90;31.10;;;;;;;;;;4984054;28;20022;-70
2021/03/24 11:53:15;;;;;;;63.42;31.88;;;;;;;;;;4984246;28;20039;-70
2021/03/24 11:55:52;;;;;;;61.05;30.02;;;;;;;;;;4985055;28;20030;-71
2021/03/24 11:58:37;;;;;;;60.72;30.77;;;;;;;;;;4983403;28;20049;-71
2021/03/24 12:01:10;;;;;;;54.75;29.77;;;;;;;;;;4987456;28;20567;-70
2021/03/24 12:03:43;;;;;;;65.35;29.23;;;;;;;;;;4982762;28;20215;-71
2021/03/24 12:06:18;;;;;;;58.05;29.67;;;;;;;;;;4984934;28;20038;-70
2021/03/24 12:09:11;;;;;;;51.45;23.23;;;;;;;;;;4987675;28;20030;-71
2021/03/24 12:11:41;;;;;;;56.55;27.13;;;;;;;;;;4984409;28;20038;-72
2021/03/24 12:14:21;;;;;;;51.10;26.38;;;;;;;;;;4981515;28;20019;-73
2021/03/24 12:16:50;;;;;;;51.65;24.48;;;;;;;;;;4987971;28;20030;-70
2021/03/24 12:19:34;;;;;;;53.00;25.30;;;;;;;;;;4982890;28;20026;-71
2021/03/24 12:22:05;;;;;;;52.47;25.20;;;;;;;;;;4988321;28;20022;-76
2021/03/24 12:24:31;;;;;;;56.60;27.45;;;;;;;;;;4981383;28;20029;-73
2021/03/24 12:27:11;;;;;;;49.45;26.35;;;;;;;;;;4987203;28;20038;-71
2021/03/24 12:29:38;;;;;;;49.28;25.25;;;;;;;;;;4989189;28;20019;-71
2021/03/24 12:32:15;;;;;;;46.15;25.52;;;;;;;;;;4981459;28;20037;-70
2021/03/24 12:34:45;;;;;;;48.83;25.30;;;;;;;;;;4983022;28;20031;-70
2021/03/24 12:37:25;;;;;;;57.38;27.02;;;;;;;;;;4976727;28;20030;-70
2021/03/24 12:39:52;;;;;;;46.80;23.48;;;;;;;;;;4987637;28;20077;-72
2021/03/24 12:42:29;;;;;;;45.80;25.13;;;;;;;;;;4981825;28;20030;-70
2021/03/24 12:44:55;;;;;;;49.25;25.35;;;;;;;;;;4992891;28;20022;-71
2021/03/24 12:47:33;;;;;;;50.95;27.20;;;;;;;;;;4982476;28;20512;-71
2021/03/24 12:50:05;;;;;;;50.80;26.67;;;;;;;;;;4983409;28;20061;-70
2021/03/24 12:52:31;;;;;;;;;;;;;;;;;;4983998;28;20511;-70
2021/03/24 12:54:57;;;;;;;52.20;24.15;;;;;;;;;;4990721;28;19951;-70
2021/03/24 12:57:26;;;;;;;53.53;26.90;;;;;;;;;;4981989;28;20038;-70
2021/03/24 12:59:58;;;;;;;49.47;24.23;;;;;;;;;;4990224;28;20069;-72
2021/03/24 13:02:31;;;;;;;45.53;24.10;;;;;;;;;;4986892;28;20057;-72
2021/03/24 13:04:57;;;;;;;45.35;20.85;;;;;;;;;;4984603;28;20038;-70
2021/03/24 13:07:33;;;;;;;52.78;22.10;;;;;;;;;;4980610;28;20038;-72
2021/03/24 13:09:59;;;;;;;43.78;21.20;;;;;;;;;;4982042;28;20042;-73
2021/03/24 13:12:25;;;;;;;44.05;21.45;;;;;;;;;;4983625;28;20030;-72
2021/03/24 13:15:02;;;;;;;40.60;18.33;;;;;;;;;;4987966;28;20038;-74
2021/03/24 13:17:34;;;;;;;44.63;23.13;;;;;;;;;;4984238;28;20026;-70
2021/03/24 13:20:03;;;;;;;45.40;22.15;;;;;;;;;;4986743;28;20579;-70
2021/03/24 13:22:38;;;;;;;43.97;22.02;;;;;;;;;;4977850;28;20066;-71
2021/03/24 13:25:10;;;;;;;41.05;20.83;;;;;;;;;;4985990;28;22268;-71
2021/03/24 13:27:51;;;;;;;41.88;21.65;;;;;;;;;;4976570;28;20034;-72
2021/03/24 13:30:36;;;;;;;46.35;23.00;;;;;;;;;;4977885;28;20423;-70
2021/03/24 13:33:22;;;;;;;48.88;21.00;;;;;;;;;;4977144;28;20535;-71
2021/03/24 13:35:51;;;;;;;39.30;20.73;;;;;;;;;;4948054;28;20136;-72
2021/03/24 13:38:24;;;;;;;43.70;23.75;;;;;;;;;;4976196;28;20030;-70
2021/03/24 13:40:50;;;;;;;43.72;24.30;;;;;;;;;;4992163;28;20027;-69
2021/03/24 13:43:19;;;;;;;43.38;22.63;;;;;;;;;;4978318;28;20523;-70
2021/03/24 13:45:57;;;;;;;47.90;20.48;;;;;;;;;;4976560;28;20037;-73
2021/03/24 13:48:30;;;;;;;43.15;24.15;;;;;;;;;;4973487;28;20038;-70
2021/03/24 13:51:11;;;;;;;45.40;22.58;;;;;;;;;;4971740;28;20523;-71
2021/03/24 13:53:44;;;;;;;44.03;23.77;;;;;;;;;;4977840;28;20151;-70
2021/03/24 13:56:16;;;;;;;51.25;27.27;;;;;;;;;;4980067;28;20037;-69
2021/03/24 13:58:51;;;;;;;53.13;30.48;;;;;;;;;;4971911;28;20117;-70
2021/03/24 14:01:27;;;;;;;59.10;33.30;;;;;;;;;;4975861;28;20022;-70
2021/03/24 14:03:53;;;;;;;59.28;32.80;;;;;;;;;;4983516;28;20108;-70
2021/03/24 14:06:19;;;;;;;51.33;32.00;;;;;;;;;;4987400;28;20054;-70
2021/03/24 14:09:03;;;;;;;64.60;33.55;;;;;;;;;;4988388;28;20027;-70
2021/03/24 14:11:39;;;;;;;64.00;34.80;;;;;;;;;;4989604;28;20022;-69
2021/03/24 14:14:20;;;;;;;60.92;31.85;;;;;;;;;;4988159;28;20085;-70
2021/03/24 14:16:51;;;;;;;65.55;33.40;;;;;;;;;;4977261;28;20369;-70
2021/03/24 14:19:17;;;;;;;57.88;32.00;;;;;;;;;;4987500;28;20116;-70
2021/03/24 14:21:50;;;;;;;63.88;32.53;;;;;;;;;;4987313;28;20540;-70
2021/03/24 14:24:20;;;;;;;64.05;32.67;;;;;;;;;;4988020;28;20084;-70
2021/03/24 14:26:49;;;;;;;65.10;32.95;;;;;;;;;;4985365;28;20054;-70
2021/03/24 14:29:34;;;;;;;65.97;34.97;;;;;;;;;;4986555;28;20026;-69
2021/03/24 14:32:03;;;;;;;61.45;31.73;;;;;;;;;;4984645;28;20492;-70
2021/03/24 14:34:49;;;;;;;61.53;33.13;;;;;;;;;;4985046;28;20026;-70
2021/03/24 14:37:27;;;;;;;62.92;34.50;;;;;;;;;;4983138;28;20057;-69
2021/03/24 14:40:07;;;;;;;62.92;34.38;;;;;;;;;;4987295;28;20034;-69
2021/03/24 14:42:52;;;;;;;63.47;33.30;;;;;;;;;;4980946;28;20058;-69
2021/03/24 14:45:18;;;;;;;65.32;33.00;;;;;;;;;;4985976;28;20023;-70
2021/03/24 14:47:56;;;;;;;61.35;33.65;;;;;;;;;;4979836;28;20220;-69